Amsden, OH

9:17 PM EST on November 20, 2014 (GMT -0500)
Arcadia Ohio Williesweather | Change Station
CLOSE
Current Station
Personal Weather Station
Location: ARCADIA, OH
Elevation: 820 ft
Nearby Weather Stations

Elev 820 ft 41.12 °N, 83.52 °W | Updated 4 seconds ago

Partly Cloudy
Partly Cloudy
19.5 °F
Feels Like 20 °F
N
1.0
Wind Variable Wind from West
Gusts 1.0 mph

Today
High -- | Low -- °F
--% Chance of Precip.
Yesterday
High -- | Low -- °F
Precip. -- in
7:27 AM 5:10 PM
Waning Crescent, 2% visible
Pressure 30.16 in
Visibility 10.0 miles
Clouds Clear
Windchill 20 °F
Dew Point 13 °F
Humidity 76%
Rainfall 0.00 in
Snow Depth Not available.
UV 0 out of 12
Pollen .10 out of 12
Air Quality Not available.
Flu Activity Not available.
METAR KFDY 210153Z AUTO 27009KT 10SM CLR M06/M10 A3013 RMK AO2 SLP211 T10561100

More Conditions Fewer Conditions

Pressure 30.16 in
Visibility 10.0 miles
Clouds Clear
Windchill 20 °F
Dew Point 13 °F
Humidity 76%
Rainfall 0.00 in
Snow Depth Not available.
UV 0 out of 12
Pollen .10 out of 12
Air Quality Not available.
Flu Activity Not available.
METAR KFDY 210153Z AUTO 27009KT 10SM CLR M06/M10 A3013 RMK AO2 SLP211 T10561100

More Conditions Fewer Conditions

Nowcast | as of 8:30 PM EST on November 20, 2014

Snow showers will be moving east at 20 mph through 10pm. Snowfall accumulations of a half an inch to perhaps an inch are expected. Untreated roads will become snow covered and slick in spots. Drive with caution and allow extra time to reach your destination.

×

10-Day Weather Forecast

Almanac

Astronomy

Nov. 20, 2014 Rise Set
Actual Time
Civil Twilight
Nautical Twilight
Astronomical Twilight
Moon
Length of Visible Light
Length of Day
Tomorrow will be .
, % of the Moon is Illuminated

Today's Extremes

State Highs State Lows

Community

WunderPhotos

Upload Photos

1,772,585 photos uploaded!

WunderBlogs® & News

Nearby

Air Quality

  Air Quality AQ Index Pollutant
Not available.

Snow Depth

Station Depth Elevation

Earthquake Activity

City Distance Mag. Time & Date
Minimum magnitude displayed is 2.5.

Coastal Water Temperatures

Place Temperature

Nearby Weather Stations